sensor_id;sensor_type;location;lat;lon;timestamp;pressure;altitude;pressure_sealevel;temperature;humidity
32789;BME280;19141;48.980;8.410;2023-05-11T04:22:32;100056.88;;;10.45;100.00
32789;BME280;19141;48.980;8.410;2023-05-11T04:24:58;100056.06;;;10.45;100.00
32789;BME280;19141;48.980;8.410;2023-05-11T04:27:23;100061.03;;;10.48;100.00
32789;BME280;19141;48.980;8.410;2023-05-11T04:29:48;100058.03;;;10.51;100.00
32789;BME280;19141;48.980;8.410;2023-05-11T04:32:15;100057.66;;;10.54;100.00
32789;BME280;19141;48.980;8.410;2023-05-11T04:34:41;100057.13;;;10.58;100.00
32789;BME280;19141;48.980;8.410;2023-05-11T04:37:08;100053.97;;;10.55;100.00
32789;BME280;19141;48.980;8.410;2023-05-11T04:39:35;100062.28;;;10.60;100.00
32789;BME280;19141;48.980;8.410;2023-05-11T04:42:00;100065.75;;;10.60;100.00
32789;BME280;19141;48.980;8.410;2023-05-11T04:44:27;100056.75;;;10.62;100.00
32789;BME280;19141;48.980;8.410;2023-05-11T04:46:53;100059.16;;;10.56;100.00
32789;BME280;19141;48.980;8.410;2023-05-11T04:49:20;100060.56;;;10.67;100.00
32789;BME280;19141;48.980;8.410;2023-05-11T04:51:45;100061.75;;;10.65;100.00
32789;BME280;19141;48.980;8.410;2023-05-11T04:54:10;100064.59;;;10.63;100.00
32789;BME280;19141;48.980;8.410;2023-05-11T04:56:36;100067.84;;;10.73;100.00
32789;BME280;19141;48.980;8.410;2023-05-11T04:59:08;100068.09;;;10.64;100.00
32789;BME280;19141;48.980;8.410;2023-05-11T05:01:33;100067.72;;;10.67;100.00
32789;BME280;19141;48.980;8.410;2023-05-11T05:04:01;100063.41;;;10.66;100.00
32789;BME280;19141;48.980;8.410;2023-05-11T05:06:26;100064.41;;;10.65;100.00
32789;BME280;19141;48.980;8.410;2023-05-11T05:08:51;100059.53;;;10.68;100.00
32789;BME280;19141;48.980;8.410;2023-05-11T05:11:18;100067.00;;;10.73;100.00
32789;BME280;19141;48.980;8.410;2023-05-11T05:13:44;100075.38;;;10.70;100.00
32789;BME280;19141;48.980;8.410;2023-05-11T05:16:09;100072.34;;;10.73;100.00
32789;BME280;19141;48.980;8.410;2023-05-11T05:18:34;100075.09;;;10.79;100.00
32789;BME280;19141;48.980;8.410;2023-05-11T05:21:01;100065.47;;;10.78;100.00
32789;BME280;19141;48.980;8.410;2023-05-11T05:23:26;100076.13;;;10.78;100.00
32789;BME280;19141;48.980;8.410;2023-05-11T05:25:52;100087.59;;;10.79;100.00
32789;BME280;19141;48.980;8.410;2023-05-11T05:28:18;100075.94;;;10.80;100.00
32789;BME280;19141;48.980;8.410;2023-05-11T05:30:44;100078.06;;;10.84;100.00
32789;BME280;19141;48.980;8.410;2023-05-11T05:33:10;100078.59;;;10.80;100.00
32789;BME280;19141;48.980;8.410;2023-05-11T05:35:35;100088.25;;;10.81;100.00
32789;BME280;19141;48.980;8.410;2023-05-11T05:38:01;100087.19;;;10.90;100.00
32789;BME280;19141;48.980;8.410;2023-05-11T05:40:27;100085.81;;;10.94;100.00
32789;BME280;19141;48.980;8.410;2023-05-11T05:42:54;100082.19;;;10.87;100.00
32789;BME280;19141;48.980;8.410;2023-05-11T05:45:22;100090.13;;;10.95;100.00
32789;BME280;19141;48.980;8.410;2023-05-11T05:47:48;100087.84;;;10.92;100.00
32789;BME280;19141;48.980;8.410;2023-05-11T05:50:15;100090.59;;;10.99;100.00
32789;BME280;19141;48.980;8.410;2023-05-11T05:52:41;100089.06;;;11.04;100.00
32789;BME280;19141;48.980;8.410;2023-05-11T05:55:07;100084.44;;;10.98;100.00
32789;BME280;19141;48.980;8.410;2023-05-11T05:57:33;100092.03;;;11.09;100.00
32789;BME280;19141;48.980;8.410;2023-05-11T05:59:59;100084.66;;;11.11;100.00
32789;BME280;19141;48.980;8.410;2023-05-11T06:02:24;100088.25;;;11.04;100.00
32789;BME280;19141;48.980;8.410;2023-05-11T06:04:50;100097.28;;;11.18;100.00
32789;BME280;19141;48.980;8.410;2023-05-11T06:07:15;100093.88;;;11.09;100.00
32789;BME280;19141;48.980;8.410;2023-05-11T06:09:41;100097.16;;;11.11;100.00
32789;BME280;19141;48.980;8.410;2023-05-11T06:12:07;100098.28;;;11.17;100.00
32789;BME280;19141;48.980;8.410;2023-05-11T06:14:36;100092.97;;;11.17;100.00
32789;BME280;19141;48.980;8.410;2023-05-11T06:17:02;100086.91;;;11.23;100.00
32789;BME280;19141;48.980;8.410;2023-05-11T06:19:28;100089.84;;;11.28;100.00
32789;BME280;19141;48.980;8.410;2023-05-11T06:21:53;100092.59;;;11.34;100.00
32789;BME280;19141;48.980;8.410;2023-05-11T06:24:19;100093.50;;;11.27;100.00
32789;BME280;19141;48.980;8.410;2023-05-11T06:26:45;100096.84;;;11.29;100.00
32789;BME280;19141;48.980;8.410;2023-05-11T06:29:12;100096.56;;;11.38;100.00
32789;BME280;19141;48.980;8.410;2023-05-11T06:31:38;100091.34;;;11.45;100.00
32789;BME280;19141;48.980;8.410;2023-05-11T06:34:04;100093.47;;;11.50;100.00
32789;BME280;19141;48.980;8.410;2023-05-11T06:36:30;100090.31;;;11.46;100.00
32789;BME280;19141;48.980;8.410;2023-05-11T06:38:56;100092.75;;;11.56;100.00
32789;BME280;19141;48.980;8.410;2023-05-11T06:41:22;100095.50;;;11.62;100.00
32789;BME280;19141;48.980;8.410;2023-05-11T06:43:47;100091.63;;;11.65;100.00
32789;BME280;19141;48.980;8.410;2023-05-11T06:46:24;100088.41;;;11.69;100.00
32789;BME280;19141;48.980;8.410;2023-05-11T06:48:50;100092.63;;;11.64;100.00
32789;BME280;19141;48.980;8.410;2023-05-11T06:51:15;100086.38;;;11.72;100.00
32789;BME280;19141;48.980;8.410;2023-05-11T06:53:42;100089.81;;;11.80;100.00
32789;BME280;19141;48.980;8.410;2023-05-11T06:56:08;100087.41;;;11.85;100.00
32789;BME280;19141;48.980;8.410;2023-05-11T06:58:33;100085.22;;;11.89;100.00
32789;BME280;19141;48.980;8.410;2023-05-11T07:00:59;100087.59;;;11.99;100.00
32789;BME280;19141;48.980;8.410;2023-05-11T07:03:24;100089.50;;;12.05;100.00
32789;BME280;19141;48.980;8.410;2023-05-11T07:05:49;100094.09;;;12.11;100.00
32789;BME280;19141;48.980;8.410;2023-05-11T07:08:15;100097.25;;;12.14;100.00
32789;BME280;19141;48.980;8.410;2023-05-11T07:10:40;100096.03;;;12.17;100.00
32789;BME280;19141;48.980;8.410;2023-05-11T07:13:06;100097.41;;;12.28;100.00
32789;BME280;19141;48.980;8.410;2023-05-11T07:15:31;100098.31;;;12.35;100.00
32789;BME280;19141;48.980;8.410;2023-05-11T07:17:57;100108.03;;;12.42;100.00
32789;BME280;19141;48.980;8.410;2023-05-11T07:20:23;100103.59;;;12.49;100.00
32789;BME280;19141;48.980;8.410;2023-05-11T07:22:48;100100.03;;;12.64;100.00
32789;BME280;19141;48.980;8.410;2023-05-11T07:25:14;100104.34;;;12.65;100.00
32789;BME280;19141;48.980;8.410;2023-05-11T07:27:39;100099.88;;;12.65;100.00
32789;BME280;19141;48.980;8.410;2023-05-11T07:30:05;100112.63;;;12.70;100.00
32789;BME280;19141;48.980;8.410;2023-05-11T07:32:31;100110.63;;;12.72;100.00
32789;BME280;19141;48.980;8.410;2023-05-11T07:34:56;100101.13;;;12.69;100.00
32789;BME280;19141;48.980;8.410;2023-05-11T07:37:22;100097.00;;;12.67;99.70
32789;BME280;19141;48.980;8.410;2023-05-11T07:39:47;100116.28;;;12.62;98.88
32789;BME280;19141;48.980;8.410;2023-05-11T07:42:13;100115.16;;;12.71;98.92
32789;BME280;19141;48.980;8.410;2023-05-11T07:44:38;100113.41;;;12.64;98.88
32789;BME280;19141;48.980;8.410;2023-05-11T07:47:04;100123.34;;;12.70;98.42
32789;BME280;19141;48.980;8.410;2023-05-11T07:49:29;100111.81;;;12.69;99.66
32789;BME280;19141;48.980;8.410;2023-05-11T07:51:54;100110.22;;;12.75;99.94
32789;BME280;19141;48.980;8.410;2023-05-11T07:54:20;100108.84;;;12.79;100.00
32789;BME280;19141;48.980;8.410;2023-05-11T07:56:45;100114.41;;;12.84;100.00
32789;BME280;19141;48.980;8.410;2023-05-11T07:59:11;100110.91;;;12.84;100.00
32789;BME280;19141;48.980;8.410;2023-05-11T08:01:36;100113.59;;;12.84;98.61
32789;BME280;19141;48.980;8.410;2023-05-11T08:04:02;100104.75;;;12.83;99.36
32789;BME280;19141;48.980;8.410;2023-05-11T08:06:27;100116.41;;;12.75;100.00
32789;BME280;19141;48.980;8.410;2023-05-11T08:08:52;100104.69;;;12.76;100.00
32789;BME280;19141;48.980;8.410;2023-05-11T08:11:18;100109.41;;;12.74;99.78
32789;BME280;19141;48.980;8.410;2023-05-11T08:13:43;100115.66;;;12.82;99.79
32789;BME280;19141;48.980;8.410;2023-05-11T08:16:09;100116.53;;;12.89;100.00
32789;BME280;19141;48.980;8.410;2023-05-11T08:18:34;100117.41;;;12.96;99.45
32789;BME280;19141;48.980;8.410;2023-05-11T08:21:00;100109.28;;;13.04;100.00
32789;BME280;19141;48.980;8.410;2023-05-11T08:23:25;100110.75;;;13.07;100.00
32789;BME280;19141;48.980;8.410;2023-05-11T08:25:53;100108.25;;;13.05;98.18
32789;BME280;19141;48.980;8.410;2023-05-11T08:28:19;100112.25;;;13.16;98.41
32789;BME280;19141;48.980;8.410;2023-05-11T08:30:45;100111.03;;;13.18;96.51
32789;BME280;19141;48.980;8.410;2023-05-11T08:33:11;100113.41;;;13.28;96.35
32789;BME280;19141;48.980;8.410;2023-05-11T08:35:40;100118.69;;;13.21;95.12
32789;BME280;19141;48.980;8.410;2023-05-11T08:38:05;100119.16;;;13.25;94.46
32789;BME280;19141;48.980;8.410;2023-05-11T08:40:31;100114.69;;;13.32;94.43
32789;BME280;19141;48.980;8.410;2023-05-11T08:42:58;100120.84;;;13.33;97.37
32789;BME280;19141;48.980;8.410;2023-05-11T08:45:24;100116.94;;;13.35;93.99
32789;BME280;19141;48.980;8.410;2023-05-11T08:47:51;100118.38;;;13.31;94.56
32789;BME280;19141;48.980;8.410;2023-05-11T08:50:17;100119.31;;;13.23;95.36
32789;BME280;19141;48.980;8.410;2023-05-11T08:52:43;100118.56;;;13.29;95.82
32789;BME280;19141;48.980;8.410;2023-05-11T08:55:09;100114.47;;;13.34;97.11
32789;BME280;19141;48.980;8.410;2023-05-11T08:57:34;100118.81;;;13.35;95.41
32789;BME280;19141;48.980;8.410;2023-05-11T09:00:01;100116.91;;;13.28;95.03
32789;BME280;19141;48.980;8.410;2023-05-11T09:02:27;100114.28;;;13.14;96.47
32789;BME280;19141;48.980;8.410;2023-05-11T09:04:53;100107.72;;;13.16;96.11
32789;BME280;19141;48.980;8.410;2023-05-11T09:07:20;100109.78;;;13.14;95.23
32789;BME280;19141;48.980;8.410;2023-05-11T09:09:46;100114.38;;;13.20;96.07
32789;BME280;19141;48.980;8.410;2023-05-11T09:12:12;100115.94;;;13.15;95.57
32789;BME280;19141;48.980;8.410;2023-05-11T09:14:37;100125.69;;;13.22;95.71
32789;BME280;19141;48.980;8.410;2023-05-11T09:17:03;100120.19;;;13.24;96.85
32789;BME280;19141;48.980;8.410;2023-05-11T09:19:29;100120.59;;;13.27;95.72
32789;BME280;19141;48.980;8.410;2023-05-11T09:21:54;100116.59;;;13.38;96.54
32789;BME280;19141;48.980;8.410;2023-05-11T09:24:20;100110.00;;;13.41;98.92
32789;BME280;19141;48.980;8.410;2023-05-11T09:26:46;100103.50;;;13.50;95.91
32789;BME280;19141;48.980;8.410;2023-05-11T09:29:11;100105.94;;;13.45;95.67
32789;BME280;19141;48.980;8.410;2023-05-11T09:34:11;100108.91;;;13.56;94.09
32789;BME280;19141;48.980;8.410;2023-05-11T09:36:37;100106.44;;;13.62;94.76
32789;BME280;19141;48.980;8.410;2023-05-11T09:39:03;100115.28;;;13.62;94.11
32789;BME280;19141;48.980;8.410;2023-05-11T09:41:30;100103.19;;;13.66;93.09
32789;BME280;19141;48.980;8.410;2023-05-11T09:44:06;100108.56;;;13.73;92.20
32789;BME280;19141;48.980;8.410;2023-05-11T09:46:33;100116.41;;;13.74;90.94
32789;BME280;19141;48.980;8.410;2023-05-11T09:48:59;100117.47;;;13.80;93.42
32789;BME280;19141;48.980;8.410;2023-05-11T09:51:33;100111.56;;;13.91;92.87
32789;BME280;19141;48.980;8.410;2023-05-11T09:54:00;100100.78;;;13.78;91.98
32789;BME280;19141;48.980;8.410;2023-05-11T09:59:34;100108.78;;;13.71;90.72
32789;BME280;19141;48.980;8.410;2023-05-11T10:04:42;100106.75;;;13.80;90.99
32789;BME280;19141;48.980;8.410;2023-05-11T10:07:07;100090.06;;;13.78;91.14
32789;BME280;19141;48.980;8.410;2023-05-11T10:09:33;100107.28;;;13.97;93.70
32789;BME280;19141;48.980;8.410;2023-05-11T10:11:59;100103.81;;;14.09;93.08
32789;BME280;19141;48.980;8.410;2023-05-11T10:14:26;100104.69;;;14.17;91.92
32789;BME280;19141;48.980;8.410;2023-05-11T10:16:56;100100.16;;;14.17;90.81
32789;BME280;19141;48.980;8.410;2023-05-11T10:19:22;100101.38;;;14.21;90.38
32789;BME280;19141;48.980;8.410;2023-05-11T10:21:49;100099.34;;;14.23;90.76
32789;BME280;19141;48.980;8.410;2023-05-11T10:24:16;100098.72;;;14.28;88.36
32789;BME280;19141;48.980;8.410;2023-05-11T10:26:42;100096.72;;;14.36;87.93
32789;BME280;19141;48.980;8.410;2023-05-11T10:29:08;100082.44;;;14.23;86.07
32789;BME280;19141;48.980;8.410;2023-05-11T10:31:34;100096.28;;;14.39;86.04
32789;BME280;19141;48.980;8.410;2023-05-11T10:34:01;100090.13;;;14.46;88.89
32789;BME280;19141;48.980;8.410;2023-05-11T10:36:29;100098.00;;;14.54;87.50
32789;BME280;19141;48.980;8.410;2023-05-11T10:38:54;100085.25;;;14.56;88.41
32789;BME280;19141;48.980;8.410;2023-05-11T10:45:18;100081.56;;;14.77;86.69
32789;BME280;19141;48.980;8.410;2023-05-11T10:49:56;100078.91;;;14.97;85.51
32789;BME280;19141;48.980;8.410;2023-05-11T10:58:05;100081.38;;;15.25;83.61
32789;BME280;19141;48.980;8.410;2023-05-11T11:03:35;100076.22;;;15.16;83.27
32789;BME280;19141;48.980;8.410;2023-05-11T11:06:02;100082.19;;;15.12;86.52
32789;BME280;19141;48.980;8.410;2023-05-11T11:08:27;100083.44;;;15.23;83.54
32789;BME280;19141;48.980;8.410;2023-05-11T11:10:54;100074.78;;;15.34;83.92
32789;BME280;19141;48.980;8.410;2023-05-11T11:13:20;100073.53;;;15.16;82.85
32789;BME280;19141;48.980;8.410;2023-05-11T11:18:19;100070.03;;;15.29;81.53
32789;BME280;19141;48.980;8.410;2023-05-11T11:20:47;100077.66;;;15.45;80.08
32789;BME280;19141;48.980;8.410;2023-05-11T11:23:47;100067.72;;;15.53;76.82
32789;BME280;19141;48.980;8.410;2023-05-11T11:26:16;100068.56;;;15.46;78.63
32789;BME280;19141;48.980;8.410;2023-05-11T11:31:31;100064.41;;;15.64;83.05
32789;BME280;19141;48.980;8.410;2023-05-11T11:34:30;100065.66;;;15.68;79.74
32789;BME280;19141;48.980;8.410;2023-05-11T11:39:45;100055.47;;;15.83;79.90
32789;BME280;19141;48.980;8.410;2023-05-11T11:42:33;100052.78;;;15.83;80.16
32789;BME280;19141;48.980;8.410;2023-05-11T11:48:05;100047.00;;;15.86;78.30
32789;BME280;19141;48.980;8.410;2023-05-11T11:50:31;100047.63;;;15.82;75.39
32789;BME280;19141;48.980;8.410;2023-05-11T11:52:57;100058.00;;;15.78;75.88
32789;BME280;19141;48.980;8.410;2023-05-11T11:55:45;100050.03;;;15.96;78.10
32789;BME280;19141;48.980;8.410;2023-05-11T12:01:07;100045.47;;;16.04;76.14
32789;BME280;19141;48.980;8.410;2023-05-11T12:03:37;100045.59;;;16.22;76.85
32789;BME280;19141;48.980;8.410;2023-05-11T12:06:06;100041.50;;;16.13;76.89
32789;BME280;19141;48.980;8.410;2023-05-11T12:08:32;100045.03;;;16.13;74.65
32789;BME280;19141;48.980;8.410;2023-05-11T12:10:59;100040.59;;;16.32;75.41
32789;BME280;19141;48.980;8.410;2023-05-11T12:13:25;100039.72;;;16.38;71.83
32789;BME280;19141;48.980;8.410;2023-05-11T12:16:20;100034.69;;;16.48;70.21
32789;BME280;19141;48.980;8.410;2023-05-11T12:18:54;100032.88;;;16.74;71.01
32789;BME280;19141;48.980;8.410;2023-05-11T12:21:22;100034.38;;;16.95;75.51
32789;BME280;19141;48.980;8.410;2023-05-11T12:23:52;100035.34;;;17.00;71.78
32789;BME280;19141;48.980;8.410;2023-05-11T12:26:20;100031.91;;;16.93;72.20
32789;BME280;19141;48.980;8.410;2023-05-11T12:28:49;100015.47;;;17.01;68.24
32789;BME280;19141;48.980;8.410;2023-05-11T12:31:18;100022.78;;;16.94;69.07
32789;BME280;19141;48.980;8.410;2023-05-11T12:33:48;100014.88;;;16.99;68.10
32789;BME280;19141;48.980;8.410;2023-05-11T12:36:15;100015.41;;;16.90;68.11
32789;BME280;19141;48.980;8.410;2023-05-11T12:38:44;100009.75;;;16.66;67.91
32789;BME280;19141;48.980;8.410;2023-05-11T12:41:10;100016.75;;;16.67;67.88
32789;BME280;19141;48.980;8.410;2023-05-11T12:43:42;100016.22;;;16.90;68.10
32789;BME280;19141;48.980;8.410;2023-05-11T12:46:08;100009.66;;;17.04;68.90
32789;BME280;19141;48.980;8.410;2023-05-11T12:48:33;100014.47;;;17.21;65.78
32789;BME280;19141;48.980;8.410;2023-05-11T12:50:59;100008.69;;;17.42;64.30
32789;BME280;19141;48.980;8.410;2023-05-11T12:53:24;100007.31;;;17.51;64.37
32789;BME280;19141;48.980;8.410;2023-05-11T12:55:57;100004.47;;;17.64;63.95
32789;BME280;19141;48.980;8.410;2023-05-11T12:58:23;100003.88;;;17.44;62.59
32789;BME280;19141;48.980;8.410;2023-05-11T13:00:55;99998.63;;;16.88;66.19
32789;BME280;19141;48.980;8.410;2023-05-11T13:03:22;99991.69;;;17.23;68.41
32789;BME280;19141;48.980;8.410;2023-05-11T13:05:48;99988.59;;;17.20;66.65
32789;BME280;19141;48.980;8.410;2023-05-11T13:08:13;99988.03;;;17.36;68.86
32789;BME280;19141;48.980;8.410;2023-05-11T13:10:40;99991.16;;;17.33;66.72
32789;BME280;19141;48.980;8.410;2023-05-11T13:13:06;99982.66;;;17.36;64.50
32789;BME280;19141;48.980;8.410;2023-05-11T13:15:31;99978.16;;;17.30;64.20
32789;BME280;19141;48.980;8.410;2023-05-11T13:18:01;99979.25;;;17.41;63.68
32789;BME280;19141;48.980;8.410;2023-05-11T13:20:31;99982.72;;;17.29;65.13
32789;BME280;19141;48.980;8.410;2023-05-11T13:23:07;99976.16;;;17.00;66.88
32789;BME280;19141;48.980;8.410;2023-05-11T13:28:20;99973.41;;;17.07;64.33
32789;BME280;19141;48.980;8.410;2023-05-11T13:30:47;99969.59;;;16.96;64.54
32789;BME280;19141;48.980;8.410;2023-05-11T13:33:12;99967.22;;;17.06;65.95
32789;BME280;19141;48.980;8.410;2023-05-11T13:35:39;99965.66;;;17.17;66.17
32789;BME280;19141;48.980;8.410;2023-05-11T13:38:05;99963.19;;;17.34;64.94
32789;BME280;19141;48.980;8.410;2023-05-11T13:40:31;99963.34;;;17.57;63.64
32789;BME280;19141;48.980;8.410;2023-05-11T13:42:56;99961.22;;;17.59;62.35
32789;BME280;19141;48.980;8.410;2023-05-11T13:45:22;99958.25;;;17.49;64.13
32789;BME280;19141;48.980;8.410;2023-05-11T13:47:47;99959.25;;;17.36;65.27
32789;BME280;19141;48.980;8.410;2023-05-11T13:50:13;99945.69;;;17.43;70.10
32789;BME280;19141;48.980;8.410;2023-05-11T13:52:40;99956.25;;;17.45;67.21
32789;BME280;19141;48.980;8.410;2023-05-11T13:55:06;99952.50;;;17.64;64.36
32789;BME280;19141;48.980;8.410;2023-05-11T13:57:31;99949.72;;;17.52;63.23
32789;BME280;19141;48.980;8.410;2023-05-11T13:59:57;99948.97;;;17.63;62.57
32789;BME280;19141;48.980;8.410;2023-05-11T14:02:22;99937.41;;;17.26;65.16
32789;BME280;19141;48.980;8.410;2023-05-11T14:04:47;99945.78;;;17.36;64.46
32789;BME280;19141;48.980;8.410;2023-05-11T14:07:13;99941.50;;;17.47;62.86
32789;BME280;19141;48.980;8.410;2023-05-11T14:09:40;99946.69;;;17.30;62.13
32789;BME280;19141;48.980;8.410;2023-05-11T14:12:05;99947.56;;;17.43;63.28
32789;BME280;19141;48.980;8.410;2023-05-11T14:14:31;99937.56;;;17.31;66.09
32789;BME280;19141;48.980;8.410;2023-05-11T14:16:57;99937.16;;;17.46;65.27
32789;BME280;19141;48.980;8.410;2023-05-11T14:19:22;99937.63;;;17.61;61.61
32789;BME280;19141;48.980;8.410;2023-05-11T14:21:48;99929.03;;;17.34;64.87
32789;BME280;19141;48.980;8.410;2023-05-11T14:24:13;99932.91;;;17.39;63.07
32789;BME280;19141;48.980;8.410;2023-05-11T14:26:40;99925.66;;;17.39;63.25
32789;BME280;19141;48.980;8.410;2023-05-11T14:29:05;99929.88;;;17.65;61.89
32789;BME280;19141;48.980;8.410;2023-05-11T14:31:31;99921.47;;;17.61;61.32
32789;BME280;19141;48.980;8.410;2023-05-11T14:33:56;99926.59;;;17.63;61.82
32789;BME280;19141;48.980;8.410;2023-05-11T14:36:22;99928.16;;;17.71;59.69
32789;BME280;19141;48.980;8.410;2023-05-11T14:38:47;99924.72;;;17.63;60.00
32789;BME280;19141;48.980;8.410;2023-05-11T14:41:13;99930.84;;;17.71;59.56
32789;BME280;19141;48.980;8.410;2023-05-11T14:43:38;99931.09;;;17.69;58.50
32789;BME280;19141;48.980;8.410;2023-05-11T14:46:04;99924.66;;;17.70;58.41
32789;BME280;19141;48.980;8.410;2023-05-11T14:48:29;99929.13;;;17.95;57.92
32789;BME280;19141;48.980;8.410;2023-05-11T14:50:55;99919.06;;;17.72;60.01
32789;BME280;19141;48.980;8.410;2023-05-11T14:53:21;99916.97;;;17.55;61.66
32789;BME280;19141;48.980;8.410;2023-05-11T14:55:47;99911.59;;;17.37;57.94
32789;BME280;19141;48.980;8.410;2023-05-11T14:58:12;99918.47;;;17.15;59.69
32789;BME280;19141;48.980;8.410;2023-05-11T15:00:38;99923.72;;;17.28;59.80
32789;BME280;19141;48.980;8.410;2023-05-11T15:03:07;99910.34;;;17.03;60.00
32789;BME280;19141;48.980;8.410;2023-05-11T15:05:35;99909.06;;;17.05;59.30
32789;BME280;19141;48.980;8.410;2023-05-11T15:08:01;99913.72;;;17.17;59.96
32789;BME280;19141;48.980;8.410;2023-05-11T15:10:26;99910.53;;;17.01;58.98
32789;BME280;19141;48.980;8.410;2023-05-11T15:12:52;99912.44;;;17.19;60.77
32789;BME280;19141;48.980;8.410;2023-05-11T15:15:17;99908.53;;;17.33;59.16
32789;BME280;19141;48.980;8.410;2023-05-11T15:17:43;99911.22;;;17.33;60.15
32789;BME280;19141;48.980;8.410;2023-05-11T15:20:08;99910.72;;;17.25;60.57
32789;BME280;19141;48.980;8.410;2023-05-11T15:22:34;99919.16;;;17.28;60.45
32789;BME280;19141;48.980;8.410;2023-05-11T15:25:00;99915.78;;;17.33;60.22
32789;BME280;19141;48.980;8.410;2023-05-11T15:27:25;99909.22;;;17.11;58.85
32789;BME280;19141;48.980;8.410;2023-05-11T15:29:51;99908.16;;;17.30;59.27
32789;BME280;19141;48.980;8.410;2023-05-11T15:32:16;99915.28;;;17.24;60.81
32789;BME280;19141;48.980;8.410;2023-05-11T15:34:42;99914.66;;;17.41;60.55
32789;BME280;19141;48.980;8.410;2023-05-11T15:37:07;99912.97;;;17.28;56.42
32789;BME280;19141;48.980;8.410;2023-05-11T15:39:36;99919.22;;;16.85;55.94
32789;BME280;19141;48.980;8.410;2023-05-11T15:42:03;99914.75;;;17.16;58.38
32789;BME280;19141;48.980;8.410;2023-05-11T15:44:29;99919.81;;;17.05;57.18
32789;BME280;19141;48.980;8.410;2023-05-11T15:46:54;99915.66;;;17.09;57.93
32789;BME280;19141;48.980;8.410;2023-05-11T15:49:20;99921.38;;;17.13;55.81
32789;BME280;19141;48.980;8.410;2023-05-11T15:51:46;99910.19;;;17.16;56.22
32789;BME280;19141;48.980;8.410;2023-05-11T15:54:11;99916.38;;;16.98;55.98
32789;BME280;19141;48.980;8.410;2023-05-11T15:56:37;99910.19;;;16.98;54.95
32789;BME280;19141;48.980;8.410;2023-05-11T15:59:02;99910.47;;;17.08;56.38
32789;BME280;19141;48.980;8.410;2023-05-11T16:01:28;99911.47;;;16.95;55.44
32789;BME280;19141;48.980;8.410;2023-05-11T16:03:53;99913.03;;;17.03;55.34
32789;BME280;19141;48.980;8.410;2023-05-11T16:06:20;99909.66;;;17.07;57.15
32789;BME280;19141;48.980;8.410;2023-05-11T16:08:46;99910.69;;;17.06;56.95
32789;BME280;19141;48.980;8.410;2023-05-11T16:11:11;99906.84;;;17.02;56.95
32789;BME280;19141;48.980;8.410;2023-05-11T16:13:36;99908.63;;;17.08;58.00
32789;BME280;19141;48.980;8.410;2023-05-11T16:16:02;99906.75;;;17.09;59.00
32789;BME280;19141;48.980;8.410;2023-05-11T16:18:27;99909.88;;;17.06;59.30
32789;BME280;19141;48.980;8.410;2023-05-11T16:20:53;99902.94;;;17.17;59.00
32789;BME280;19141;48.980;8.410;2023-05-11T16:23:18;99905.53;;;17.05;58.52
32789;BME280;19141;48.980;8.410;2023-05-11T16:25:44;99896.44;;;17.06;59.69
32789;BME280;19141;48.980;8.410;2023-05-11T16:28:11;99892.31;;;16.85;59.22
32789;BME280;19141;48.980;8.410;2023-05-11T16:30:37;99902.34;;;16.96;60.30
32789;BME280;19141;48.980;8.410;2023-05-11T16:33:02;99901.25;;;16.79;57.59
32789;BME280;19141;48.980;8.410;2023-05-11T16:35:29;99893.19;;;16.79;57.20
32789;BME280;19141;48.980;8.410;2023-05-11T16:37:57;99898.06;;;16.70;59.18
32789;BME280;19141;48.980;8.410;2023-05-11T16:40:23;99898.41;;;16.74;55.92
32789;BME280;19141;48.980;8.410;2023-05-11T16:42:48;99890.97;;;16.76;56.02
32789;BME280;19141;48.980;8.410;2023-05-11T16:45:14;99892.53;;;16.84;55.94
32789;BME280;19141;48.980;8.410;2023-05-11T16:47:41;99888.13;;;16.71;57.30
32789;BME280;19141;48.980;8.410;2023-05-11T16:50:07;99890.59;;;16.66;57.93
32789;BME280;19141;48.980;8.410;2023-05-11T16:52:32;99883.88;;;16.57;59.75
32789;BME280;19141;48.980;8.410;2023-05-11T16:54:58;99893.47;;;16.46;58.77
32789;BME280;19141;48.980;8.410;2023-05-11T16:57:23;99898.19;;;16.50;60.35
32789;BME280;19141;48.980;8.410;2023-05-11T16:59:50;99897.31;;;16.57;60.57
32789;BME280;19141;48.980;8.410;2023-05-11T17:02:15;99897.31;;;16.57;60.91
32789;BME280;19141;48.980;8.410;2023-05-11T17:04:41;99898.56;;;16.54;59.98
32789;BME280;19141;48.980;8.410;2023-05-11T17:07:06;99897.84;;;16.40;60.77
32789;BME280;19141;48.980;8.410;2023-05-11T17:09:35;99886.34;;;16.33;60.93
32789;BME280;19141;48.980;8.410;2023-05-11T17:12:00;99897.31;;;16.32;61.36
32789;BME280;19141;48.980;8.410;2023-05-11T17:14:31;99894.81;;;16.37;61.28
32789;BME280;19141;48.980;8.410;2023-05-11T17:16:56;99896.03;;;16.34;61.75
32789;BME280;19141;48.980;8.410;2023-05-11T17:19:21;99902.53;;;16.26;62.79
32789;BME280;19141;48.980;8.410;2023-05-11T17:21:47;99905.84;;;16.22;63.19
32789;BME280;19141;48.980;8.410;2023-05-11T17:24:12;99905.63;;;16.23;63.59
32789;BME280;19141;48.980;8.410;2023-05-11T17:26:37;99913.31;;;16.20;65.07
32789;BME280;19141;48.980;8.410;2023-05-11T17:29:03;99913.81;;;16.04;64.03
32789;BME280;19141;48.980;8.410;2023-05-11T17:31:28;99912.38;;;16.08;64.87
32789;BME280;19141;48.980;8.410;2023-05-11T17:33:53;99915.38;;;15.93;64.27
32789;BME280;19141;48.980;8.410;2023-05-11T17:36:19;99912.81;;;16.05;64.29
32789;BME280;19141;48.980;8.410;2023-05-11T17:38:45;99912.69;;;15.93;64.58
32789;BME280;19141;48.980;8.410;2023-05-11T17:41:11;99923.00;;;15.89;64.44
32789;BME280;19141;48.980;8.410;2023-05-11T17:43:36;99919.34;;;15.77;64.06
32789;BME280;19141;48.980;8.410;2023-05-11T17:46:02;99920.41;;;15.76;64.69
32789;BME280;19141;48.980;8.410;2023-05-11T17:48:29;99914.00;;;15.77;65.98